»·PEaware :: N52KA L52-L88

N52KA :: L52-L88

FLIGHT INFORMATION

Flight Status: Arrived
Operator: Privately registered:
United States
More flights under this callsign
Pilot: Tim F. (23227)
Aircraft: CESSNA 172 SKYHAWK
(C172)
More flights by this aircraft type
Origin: L52 Oceano Co
United States
Destination: L88 New Cuyama
United States
More flights between these airports :: More routes between these airports
Route:
File this flight plan on PilotEdge
Remarks: CAT 1
Altitude:
(Current/Filed)
2,500ft
Speed:
(Current/Filed)
150kts
Departed: 29-Jan-19 06:06 PM
Arrived: 29-Jan-19 06:43 PM
Distance/Time
Traveled:
47nm/0:37
Distance/Time
To Go:
Arrived

Flight Plot

Page will automatically refresh every two minutes.


Map Options




Map Legend


Flown Route
Filed Route
Departure Airport
Arrival Airport
Navaid (VOR, NDB)
Fix

Horizontal Profiles

Position Reports

Time Latitude Longitude Heading Altitude Ground
Speed
29-Jan-19 18:04 35.101684 -120.622247 218 17ft 0kts
29-Jan-19 18:05 35.106220 -120.632957 290 244ft 65kts
29-Jan-19 18:06 35.115286 -120.657613 317 789ft 84kts
29-Jan-19 18:07 35.136829 -120.661815 46 1427ft 84kts
29-Jan-19 18:08 35.133609 -120.629394 112 1642ft 108kts
29-Jan-19 18:09 35.117007 -120.598236 128 1836ft 112kts
29-Jan-19 18:10 35.098383 -120.569206 127 2177ft 101kts
29-Jan-19 18:11 35.081372 -120.542414 125 2496ft 107kts
29-Jan-19 18:12 35.065992 -120.509038 102 2491ft 117kts
29-Jan-19 18:13 35.058914 -120.469752 101 2534ft 115kts
29-Jan-19 18:14 35.052691 -120.434694 101 2974ft 97kts
29-Jan-19 18:15 35.047203 -120.403547 101 3462ft 91kts
29-Jan-19 18:16 35.042032 -120.373908 101 3969ft 88kts
29-Jan-19 18:17 35.037064 -120.345101 101 4458ft 87kts
29-Jan-19 18:18 35.032524 -120.318456 101 5031ft 65kts
29-Jan-19 18:19 35.029821 -120.295037 101 5249ft 76kts
29-Jan-19 18:20 35.025588 -120.269551 101 5605ft 77kts
29-Jan-19 18:21 35.021387 -120.243932 100 5953ft 77kts
29-Jan-19 18:22 35.017235 -120.218272 100 6285ft 77kts
29-Jan-19 18:23 35.013146 -120.192622 100 6600ft 77kts
29-Jan-19 18:24 35.009117 -120.166964 100 6899ft 77kts
29-Jan-19 18:25 35.005872 -120.142005 99 7202ft 73kts
29-Jan-19 18:26 35.002634 -120.118020 100 7471ft 69kts
29-Jan-19 18:27 34.998639 -120.091230 100 7526ft 95kts
29-Jan-19 18:28 34.993537 -120.056445 100 7517ft 109kts
29-Jan-19 18:29 34.989040 -120.018757 93 7419ft 119kts
29-Jan-19 18:30 34.989147 -119.977673 95 7225ft 120kts
29-Jan-19 18:31 34.987182 -119.941215 100 6717ft 104kts
29-Jan-19 18:32 34.983376 -119.905561 92 6116ft 108kts
29-Jan-19 18:33 34.981373 -119.869317 97 5552ft 104kts
29-Jan-19 18:34 34.976644 -119.834719 100 4920ft 104kts
29-Jan-19 18:35 34.969783 -119.800873 107 4400ft 103kts
29-Jan-19 18:36 34.961952 -119.767731 99 4006ft 93kts
29-Jan-19 18:37 34.959178 -119.739505 104 3802ft 80kts
29-Jan-19 18:38 34.950903 -119.712195 113 3218ft 86kts
29-Jan-19 18:39 34.942753 -119.688178 72 2395ft 76kts
29-Jan-19 18:40 34.943573 -119.665150 150 2626ft 68kts
29-Jan-19 18:41 34.938545 -119.682150 297 2243ft 82kts
29-Jan-19 18:42 34.942863 -119.690529 176 2206ft 0kts
29-Jan-19 18:43 34.942864 -119.690529 176 2206ft 0kts
29-Jan-19 18:44 34.942864 -119.690529 176 2206ft 0kts
29-Jan-19 18:45 34.942864 -119.690529 176 2206ft 0kts
29-Jan-19 18:46 34.942864 -119.690529 176 2206ft 0kts
29-Jan-19 18:47 34.942864 -119.690529 176 2206ft 0kts
29-Jan-19 18:48 34.942864 -119.690529 176 2206ft 0kts
29-Jan-19 18:49 34.942864 -119.690529 176 2206ft 0kts
29-Jan-19 18:50 34.942864 -119.690529 176 2206ft 0kts
29-Jan-19 18:51 34.942864 -119.690529 176 2206ft 0kts
29-Jan-19 18:52 34.942864 -119.690529 176 2206ft 0kts
29-Jan-19 18:53 34.942864 -119.690529 176 2206ft 0kts
29-Jan-19 18:54 34.942864 -119.690529 176 2206ft 0kts
29-Jan-19 18:55 34.942864 -119.690529 176 2206ft 0kts
29-Jan-19 18:56 34.942864 -119.690529 176 2206ft 0kts

Navigation Log

Ident Type
Flight plan parsing failed, navigation log unavailable